createdAt,value
2018-02-14T00:00:31.797Z,0.00
2018-02-14T00:01:10.747Z,0.00
2018-02-14T00:02:10.686Z,0.00
2018-02-14T00:03:10.624Z,0.00
2018-02-14T00:04:10.568Z,0.00
2018-02-14T00:05:10.531Z,0.00
2018-02-14T00:06:31.428Z,0.00
2018-02-14T00:07:10.379Z,0.00
2018-02-14T00:08:10.311Z,0.00
2018-02-14T00:09:10.254Z,0.00
2018-02-14T00:10:10.192Z,0.00
2018-02-14T00:11:10.130Z,0.00
2018-02-14T00:12:31.061Z,0.00
2018-02-14T00:13:10.008Z,0.00
2018-02-14T00:14:09.943Z,0.00
2018-02-14T00:15:09.882Z,0.00
2018-02-14T00:16:09.870Z,0.00
2018-02-14T00:17:09.765Z,0.00
2018-02-14T00:18:30.722Z,0.00
2018-02-14T00:19:09.637Z,0.00
2018-02-14T00:20:09.574Z,0.00
2018-02-14T00:21:09.513Z,0.00
2018-02-14T00:22:09.452Z,0.00
2018-02-14T00:23:09.390Z,0.00
2018-02-14T00:24:30.322Z,0.00
2018-02-14T00:25:09.267Z,0.00
2018-02-14T00:26:09.199Z,0.00
2018-02-14T00:27:09.193Z,0.00
2018-02-14T00:28:09.084Z,0.00
2018-02-14T00:29:09.019Z,0.00
2018-02-14T00:30:29.950Z,0.00
2018-02-14T00:31:08.896Z,0.00
2018-02-14T00:32:08.830Z,0.00
2018-02-14T00:33:08.774Z,0.00
2018-02-14T00:34:08.712Z,0.00
2018-02-14T00:35:08.646Z,0.00
2018-02-14T00:36:29.579Z,0.00
2018-02-14T00:37:08.519Z,0.00
2018-02-14T00:38:08.458Z,0.00
2018-02-14T00:39:08.401Z,0.00
2018-02-14T00:40:08.341Z,0.00
2018-02-14T00:41:08.312Z,0.00
2018-02-14T00:42:29.201Z,0.00
2018-02-14T00:43:08.176Z,0.00
2018-02-14T00:44:08.091Z,0.00
2018-02-14T00:45:08.032Z,0.00
2018-02-14T00:46:07.971Z,0.00
2018-02-14T00:47:07.903Z,0.00
2018-02-14T00:48:28.840Z,0.00
2018-02-14T00:49:07.812Z,0.00
2018-02-14T00:50:07.736Z,0.00
2018-02-14T00:51:07.671Z,0.00
2018-02-14T00:52:07.602Z,0.00
2018-02-14T00:53:07.551Z,0.00
2018-02-14T00:54:28.463Z,0.00
2018-02-14T00:55:07.409Z,0.00
2018-02-14T00:56:07.360Z,0.00
2018-02-14T00:57:07.292Z,0.00
2018-02-14T00:58:07.241Z,0.00
2018-02-14T00:59:07.176Z,0.00
2018-02-14T01:00:28.108Z,0.00
2018-02-14T01:01:07.062Z,0.00
2018-02-14T01:02:06.985Z,0.00
2018-02-14T01:03:06.925Z,0.00
2018-02-14T01:04:06.878Z,0.00
2018-02-14T01:05:06.802Z,0.00
2018-02-14T01:06:27.724Z,0.00
2018-02-14T01:07:06.682Z,0.00
2018-02-14T01:08:06.609Z,0.00
2018-02-14T01:09:06.563Z,0.00
2018-02-14T01:10:06.501Z,0.00
2018-02-14T01:11:06.441Z,0.00
2018-02-14T01:12:27.365Z,0.00
2018-02-14T01:13:06.317Z,0.00
2018-02-14T01:14:06.274Z,0.00
2018-02-14T01:15:06.184Z,0.00
2018-02-14T01:16:06.144Z,0.00
2018-02-14T01:17:06.096Z,0.00
2018-02-14T01:18:26.977Z,0.00
2018-02-14T01:19:05.950Z,0.00
2018-02-14T01:20:05.876Z,0.00
2018-02-14T01:21:05.812Z,0.00
2018-02-14T01:22:05.760Z,0.00
2018-02-14T01:23:05.677Z,0.00
2018-02-14T01:24:26.611Z,0.00
2018-02-14T01:25:05.568Z,0.00
2018-02-14T01:26:05.490Z,0.00
2018-02-14T01:27:05.447Z,0.00
2018-02-14T01:28:05.400Z,0.00
2018-02-14T01:29:05.304Z,0.00
2018-02-14T01:30:26.255Z,0.00
2018-02-14T01:31:05.197Z,0.00
2018-02-14T01:32:05.117Z,0.00
2018-02-14T01:33:05.066Z,0.00
2018-02-14T01:34:05.025Z,0.00
2018-02-14T01:35:04.933Z,0.00
2018-02-14T01:36:25.858Z,0.00
2018-02-14T01:37:04.813Z,0.00
2018-02-14T01:38:04.747Z,0.00
2018-02-14T01:39:04.706Z,0.00
2018-02-14T01:40:04.620Z,0.00
2018-02-14T01:41:04.561Z,0.00
2018-02-14T01:42:25.490Z,0.00
2018-02-14T01:43:04.451Z,0.00
2018-02-14T01:44:04.378Z,0.00
2018-02-14T01:45:04.314Z,0.00
2018-02-14T01:46:04.252Z,0.00
2018-02-14T01:47:04.192Z,0.00
2018-02-14T01:48:25.117Z,0.00
2018-02-14T01:49:04.078Z,0.00
2018-02-14T01:50:04.007Z,0.00
2018-02-14T01:51:03.962Z,0.00
2018-02-14T01:52:03.881Z,0.00
2018-02-14T01:53:03.818Z,0.00
2018-02-14T01:54:24.743Z,0.00
2018-02-14T01:55:03.691Z,0.00
2018-02-14T01:56:03.634Z,0.00
2018-02-14T01:57:03.588Z,0.00
2018-02-14T01:58:03.507Z,0.00
2018-02-14T01:59:03.448Z,0.00
2018-02-14T02:00:24.371Z,0.00
2018-02-14T02:01:03.342Z,0.00
2018-02-14T02:02:03.260Z,0.00
2018-02-14T02:03:03.198Z,0.00
2018-02-14T02:04:03.147Z,0.00
2018-02-14T02:05:03.073Z,0.00
2018-02-14T02:06:24.025Z,0.00
2018-02-14T02:07:02.951Z,0.00
2018-02-14T02:08:02.889Z,0.00
2018-02-14T02:09:02.829Z,0.00
2018-02-14T02:10:02.771Z,0.00
2018-02-14T02:11:02.706Z,0.00
2018-02-14T02:12:23.627Z,0.00
2018-02-14T02:13:02.579Z,0.00
2018-02-14T02:14:02.517Z,0.00
2018-02-14T02:15:02.462Z,0.00
2018-02-14T02:16:02.401Z,0.00
2018-02-14T02:17:02.332Z,0.00
2018-02-14T02:18:23.256Z,0.00
2018-02-14T02:19:02.208Z,0.00
2018-02-14T02:20:02.146Z,0.00
2018-02-14T02:21:02.083Z,0.00
2018-02-14T02:22:02.024Z,0.00
2018-02-14T02:23:01.959Z,0.00
2018-02-14T02:24:22.894Z,0.00
2018-02-14T02:25:01.834Z,0.00
2018-02-14T02:26:01.774Z,0.00
2018-02-14T02:27:01.745Z,0.00
2018-02-14T02:28:01.648Z,0.00
2018-02-14T02:29:01.587Z,0.00
2018-02-14T02:30:22.523Z,0.00
2018-02-14T02:31:01.465Z,0.00
2018-02-14T02:32:01.402Z,0.00
2018-02-14T02:33:01.338Z,0.00
2018-02-14T02:34:01.282Z,0.00
2018-02-14T02:35:01.235Z,0.00
2018-02-14T02:36:22.145Z,0.00
2018-02-14T02:37:01.092Z,0.00
2018-02-14T02:38:01.030Z,0.00
2018-02-14T02:39:00.967Z,0.00
2018-02-14T02:40:00.909Z,0.00
2018-02-14T02:41:00.849Z,0.00
2018-02-14T02:42:21.773Z,0.00
2018-02-14T02:43:00.722Z,0.00
2018-02-14T02:44:00.661Z,0.00
2018-02-14T02:45:00.637Z,0.00
2018-02-14T02:46:00.544Z,0.00
2018-02-14T02:47:00.490Z,0.00
2018-02-14T02:48:21.396Z,0.00
2018-02-14T02:49:00.364Z,0.00
2018-02-14T02:50:00.304Z,0.00
2018-02-14T02:51:00.230Z,0.00
2018-02-14T02:52:00.178Z,0.00
2018-02-14T02:53:00.124Z,0.00
2018-02-14T02:54:21.023Z,0.00
2018-02-14T02:54:59.986Z,0.00
2018-02-14T02:55:59.931Z,0.00
2018-02-14T02:56:59.857Z,0.00
2018-02-14T02:57:59.802Z,0.00
2018-02-14T02:58:59.741Z,0.00
2018-02-14T03:00:20.649Z,0.00
2018-02-14T03:00:59.611Z,0.00
2018-02-14T03:01:59.567Z,0.00
2018-02-14T03:02:59.484Z,0.00
2018-02-14T03:03:59.427Z,0.00
2018-02-14T03:04:59.359Z,0.00
2018-02-14T03:06:20.288Z,0.00
2018-02-14T03:06:59.232Z,0.00
2018-02-14T03:07:59.188Z,0.00
2018-02-14T03:08:59.116Z,0.00
2018-02-14T03:09:59.059Z,0.00
2018-02-14T03:10:58.989Z,0.00
2018-02-14T03:12:19.904Z,0.00
2018-02-14T03:12:58.865Z,0.00
2018-02-14T03:13:58.809Z,0.00
2018-02-14T03:14:58.734Z,0.00
2018-02-14T03:15:58.675Z,0.00
2018-02-14T03:16:58.627Z,0.00
2018-02-14T03:18:19.536Z,0.00
2018-02-14T03:18:58.504Z,0.00
2018-02-14T03:19:58.432Z,0.00
2018-02-14T03:20:58.358Z,0.00
2018-02-14T03:21:58.311Z,0.00
2018-02-14T03:22:58.237Z,0.00
2018-02-14T03:24:19.162Z,0.00
2018-02-14T03:24:58.125Z,0.00
2018-02-14T03:25:58.064Z,0.00
2018-02-14T03:26:57.987Z,0.00
2018-02-14T03:27:57.935Z,0.00
2018-02-14T03:28:57.880Z,0.00
2018-02-14T03:30:18.789Z,0.00
2018-02-14T03:30:57.752Z,0.00
2018-02-14T03:31:57.679Z,0.00
2018-02-14T03:32:57.619Z,0.00
2018-02-14T03:33:57.552Z,0.00
2018-02-14T03:34:57.492Z,0.00
2018-02-14T03:36:18.416Z,0.00
2018-02-14T03:36:57.366Z,0.00
2018-02-14T03:37:57.303Z,0.00
2018-02-14T03:38:57.246Z,0.00
2018-02-14T03:39:57.185Z,0.00
2018-02-14T03:40:57.121Z,0.00
2018-02-14T03:42:18.044Z,0.00
2018-02-14T03:42:56.995Z,0.00
2018-02-14T03:43:56.931Z,0.00
2018-02-14T03:44:56.872Z,0.00
2018-02-14T03:45:56.826Z,0.00
2018-02-14T03:46:56.749Z,0.00
2018-02-14T03:48:17.671Z,0.00
2018-02-14T03:48:56.630Z,0.00
2018-02-14T03:49:56.561Z,0.00
2018-02-14T03:50:56.503Z,0.00
2018-02-14T03:51:56.436Z,0.00
2018-02-14T03:52:56.375Z,0.00
2018-02-14T03:54:17.303Z,0.00
2018-02-14T03:54:56.247Z,0.00
2018-02-14T03:55:56.187Z,0.00
2018-02-14T03:56:56.127Z,0.00
2018-02-14T03:57:56.061Z,0.00
2018-02-14T03:58:55.999Z,0.00
2018-02-14T04:00:16.932Z,0.00
2018-02-14T04:00:55.877Z,0.00
2018-02-14T04:01:55.813Z,0.00
2018-02-14T04:02:55.754Z,0.00
2018-02-14T04:03:55.692Z,0.00
2018-02-14T04:04:55.628Z,0.00
2018-02-14T04:06:16.557Z,0.00
2018-02-14T04:06:55.505Z,0.00
2018-02-14T04:07:55.445Z,0.00
2018-02-14T04:08:55.384Z,0.00
2018-02-14T04:09:55.320Z,0.00
2018-02-14T04:10:55.258Z,0.00
2018-02-14T04:12:16.182Z,0.00
2018-02-14T04:12:55.138Z,0.00
2018-02-14T04:13:55.076Z,0.00
2018-02-14T04:14:55.009Z,0.00
2018-02-14T04:15:54.962Z,0.00
2018-02-14T04:16:54.885Z,0.00
2018-02-14T04:18:15.820Z,0.00
2018-02-14T04:18:54.766Z,0.00
2018-02-14T04:19:54.708Z,0.00
2018-02-14T04:20:54.639Z,0.00
2018-02-14T04:21:54.579Z,0.00
2018-02-14T04:22:54.524Z,0.00
2018-02-14T04:24:15.435Z,0.00
2018-02-14T04:24:54.383Z,0.00
2018-02-14T04:25:54.329Z,0.00
2018-02-14T04:26:54.265Z,0.00
2018-02-14T04:27:54.198Z,0.00
2018-02-14T04:28:54.137Z,0.00
2018-02-14T04:30:15.060Z,0.00
2018-02-14T04:30:54.012Z,0.00
2018-02-14T04:31:53.958Z,0.00
2018-02-14T04:32:53.885Z,0.00
2018-02-14T04:33:53.845Z,0.00
2018-02-14T04:34:53.777Z,0.00
2018-02-14T04:36:14.686Z,0.00
2018-02-14T04:36:53.637Z,0.00
2018-02-14T04:37:53.579Z,0.00
2018-02-14T04:38:53.513Z,0.00
2018-02-14T04:39:53.450Z,0.00
2018-02-14T04:40:53.389Z,0.00
2018-02-14T04:42:14.319Z,0.00
2018-02-14T04:42:53.265Z,0.00
2018-02-14T04:43:53.208Z,0.00
2018-02-14T04:44:53.138Z,0.00
2018-02-14T04:45:53.077Z,0.00
2018-02-14T04:46:53.017Z,0.00
2018-02-14T04:48:13.940Z,0.00
2018-02-14T04:48:52.889Z,0.00
2018-02-14T04:49:52.830Z,0.00
2018-02-14T04:50:52.765Z,0.00
2018-02-14T04:51:52.706Z,0.00
2018-02-14T04:52:52.640Z,0.00
2018-02-14T04:54:13.568Z,0.00
2018-02-14T04:54:52.516Z,0.00
2018-02-14T04:55:52.457Z,0.00
2018-02-14T04:56:52.394Z,0.00
2018-02-14T04:57:52.335Z,0.00
2018-02-14T04:58:52.267Z,0.00
2018-02-14T05:00:13.196Z,0.00
2018-02-14T05:00:52.148Z,0.00
2018-02-14T05:01:52.084Z,0.00
2018-02-14T05:02:52.024Z,0.00
2018-02-14T05:03:51.959Z,0.00
2018-02-14T05:04:51.894Z,0.00
2018-02-14T05:06:12.825Z,0.00
2018-02-14T05:06:51.773Z,0.00
2018-02-14T05:07:51.708Z,0.00
2018-02-14T05:08:51.654Z,0.00
2018-02-14T05:09:51.591Z,0.00
2018-02-14T05:10:51.563Z,0.00
2018-02-14T05:12:12.457Z,0.00
2018-02-14T05:12:51.402Z,0.00
2018-02-14T05:13:51.337Z,0.00
2018-02-14T05:14:51.280Z,0.00
2018-02-14T05:15:51.217Z,0.00
2018-02-14T05:16:51.152Z,0.00
2018-02-14T05:18:12.080Z,0.00
2018-02-14T05:18:51.032Z,0.00
2018-02-14T05:19:50.965Z,0.00
2018-02-14T05:20:50.906Z,0.00
2018-02-14T05:21:50.838Z,0.00
2018-02-14T05:22:50.784Z,0.00
2018-02-14T05:24:11.711Z,0.00
2018-02-14T05:24:50.661Z,0.00
2018-02-14T05:25:50.591Z,0.00
2018-02-14T05:26:50.535Z,0.00
2018-02-14T05:27:50.475Z,0.00
2018-02-14T05:28:50.400Z,0.00
2018-02-14T05:30:11.332Z,0.00
2018-02-14T05:30:50.281Z,0.00
2018-02-14T05:31:50.215Z,0.00
2018-02-14T05:32:50.159Z,0.00
2018-02-14T05:33:50.088Z,0.00
2018-02-14T05:34:50.031Z,0.00
2018-02-14T05:36:10.952Z,0.00
2018-02-14T05:36:49.911Z,0.00
2018-02-14T05:37:49.843Z,0.00
2018-02-14T05:38:49.779Z,0.00
2018-02-14T05:39:49.716Z,0.00
2018-02-14T05:40:49.654Z,0.00
2018-02-14T05:42:10.584Z,0.00
2018-02-14T05:42:49.537Z,0.00
2018-02-14T05:43:49.466Z,0.00
2018-02-14T05:44:49.405Z,0.00
2018-02-14T05:45:49.342Z,0.00
2018-02-14T05:46:49.285Z,0.00
2018-02-14T05:48:10.204Z,0.00
2018-02-14T05:48:49.157Z,0.00
2018-02-14T05:49:49.094Z,0.00
2018-02-14T05:50:49.033Z,0.00
2018-02-14T05:51:48.969Z,0.00
2018-02-14T05:52:48.910Z,0.00
2018-02-14T05:54:09.830Z,0.00
2018-02-14T05:54:48.786Z,0.00
2018-02-14T05:55:48.721Z,0.00
2018-02-14T05:56:48.658Z,0.00
2018-02-14T05:57:48.595Z,0.00
2018-02-14T05:58:48.533Z,0.00
2018-02-14T06:00:09.457Z,0.00
2018-02-14T06:00:48.409Z,0.00
2018-02-14T06:01:48.347Z,0.00
2018-02-14T06:02:48.285Z,0.00
2018-02-14T06:03:48.226Z,0.00
2018-02-14T06:04:48.163Z,0.00
2018-02-14T06:06:09.086Z,0.00
2018-02-14T06:06:48.050Z,0.00
2018-02-14T06:07:47.990Z,0.00
2018-02-14T06:08:47.920Z,0.00
2018-02-14T06:09:47.855Z,0.00
2018-02-14T06:10:47.796Z,0.00
2018-02-14T06:12:08.722Z,0.00
2018-02-14T06:12:47.677Z,0.00
2018-02-14T06:13:47.657Z,0.00
2018-02-14T06:14:47.579Z,0.00
2018-02-14T06:15:47.516Z,0.00
2018-02-14T06:16:47.443Z,0.00
2018-02-14T06:18:08.383Z,0.00
2018-02-14T06:18:47.336Z,0.00
2018-02-14T06:19:47.274Z,0.00
2018-02-14T06:20:47.217Z,0.00
2018-02-14T06:21:47.157Z,0.00
2018-02-14T06:22:47.109Z,0.00
2018-02-14T06:24:08.038Z,0.00
2018-02-14T06:24:47.006Z,0.00
2018-02-14T06:25:46.932Z,5.63
2018-02-14T06:26:46.875Z,5.63
2018-02-14T06:27:46.823Z,5.63
2018-02-14T06:28:46.783Z,5.63
2018-02-14T06:30:07.701Z,5.63
2018-02-14T06:30:46.667Z,5.63
2018-02-14T06:31:46.604Z,5.63
2018-02-14T06:32:46.570Z,5.63
2018-02-14T06:33:46.496Z,11.25
2018-02-14T06:34:46.456Z,11.25
2018-02-14T06:36:07.376Z,11.25
2018-02-14T06:36:46.331Z,11.25
2018-02-14T06:37:46.292Z,11.25
2018-02-14T06:38:46.246Z,11.25
2018-02-14T06:39:46.171Z,16.88
2018-02-14T06:40:46.124Z,16.88
2018-02-14T06:42:07.055Z,16.88
2018-02-14T06:42:46.023Z,16.88
2018-02-14T06:43:45.962Z,16.88
2018-02-14T06:44:45.904Z,16.88
2018-02-14T06:45:45.849Z,22.50
2018-02-14T06:46:45.797Z,22.50
2018-02-14T06:48:06.745Z,22.50
2018-02-14T06:48:45.693Z,22.50
2018-02-14T06:49:45.655Z,28.13
2018-02-14T06:50:45.615Z,28.13
2018-02-14T06:51:45.537Z,28.13
2018-02-14T06:52:45.484Z,28.13
2018-02-14T06:54:06.424Z,28.13
2018-02-14T06:54:45.394Z,33.75
2018-02-14T06:55:45.348Z,33.75
2018-02-14T06:56:45.287Z,33.75
2018-02-14T06:57:45.224Z,33.75
2018-02-14T06:58:45.171Z,39.38
2018-02-14T07:00:06.116Z,39.38
2018-02-14T07:00:45.092Z,39.38
2018-02-14T07:01:45.022Z,45.00
2018-02-14T07:02:44.964Z,45.00
2018-02-14T07:03:44.911Z,45.00
2018-02-14T07:04:44.888Z,50.63
2018-02-14T07:06:05.807Z,50.63
2018-02-14T07:06:44.757Z,50.63
2018-02-14T07:07:44.703Z,50.63
2018-02-14T07:08:44.662Z,50.63
2018-02-14T07:09:44.600Z,56.25
2018-02-14T07:10:44.547Z,56.25
2018-02-14T07:12:05.511Z,56.25
2018-02-14T07:12:44.454Z,56.25
2018-02-14T07:13:44.392Z,56.25
2018-02-14T07:14:44.346Z,61.88
2018-02-14T07:15:44.302Z,61.88
2018-02-14T07:16:44.247Z,61.88
2018-02-14T07:18:05.206Z,67.50
2018-02-14T07:18:44.157Z,67.50
2018-02-14T07:19:44.085Z,73.13
2018-02-14T07:20:44.035Z,73.13
2018-02-14T07:21:43.985Z,73.13
2018-02-14T07:22:43.936Z,78.75
2018-02-14T07:24:04.876Z,78.75
2018-02-14T07:24:43.831Z,78.75
2018-02-14T07:25:43.779Z,84.38
2018-02-14T07:26:43.730Z,84.38
2018-02-14T07:27:43.677Z,84.38
2018-02-14T07:28:43.630Z,84.38
2018-02-14T07:30:04.564Z,90.00
2018-02-14T07:30:43.544Z,90.00
2018-02-14T07:31:43.482Z,90.00
2018-02-14T07:32:43.445Z,95.63
2018-02-14T07:33:43.379Z,95.63
2018-02-14T07:34:43.329Z,95.63
2018-02-14T07:36:04.262Z,101.25
2018-02-14T07:36:43.231Z,101.25
2018-02-14T07:37:43.211Z,101.25
2018-02-14T07:38:43.121Z,106.88
2018-02-14T07:39:43.117Z,106.88
2018-02-14T07:40:43.100Z,112.50
2018-02-14T07:42:03.961Z,112.50
2018-02-14T07:42:42.939Z,118.13
2018-02-14T07:43:42.867Z,118.13
2018-02-14T07:44:42.823Z,118.13
2018-02-14T07:45:42.763Z,118.13
2018-02-14T07:46:42.729Z,123.75
2018-02-14T07:48:03.689Z,123.75
2018-02-14T07:48:42.612Z,123.75
2018-02-14T07:49:42.580Z,129.38
2018-02-14T07:50:42.512Z,129.38
2018-02-14T07:51:42.487Z,129.38
2018-02-14T07:52:42.423Z,135.00
2018-02-14T07:54:03.355Z,135.00
2018-02-14T07:54:42.310Z,140.63
2018-02-14T07:55:42.279Z,140.63
2018-02-14T07:56:42.231Z,140.63
2018-02-14T07:57:42.160Z,146.25
2018-02-14T07:58:42.129Z,146.25
2018-02-14T08:00:03.074Z,151.88
2018-02-14T08:00:42.025Z,151.88
2018-02-14T08:01:41.995Z,157.50
2018-02-14T08:02:41.911Z,163.13
2018-02-14T08:03:41.872Z,163.13
2018-02-14T08:04:41.824Z,163.13
2018-02-14T08:06:02.748Z,163.13
2018-02-14T08:06:41.706Z,163.13
2018-02-14T08:07:41.659Z,163.13
2018-02-14T08:08:41.608Z,168.75
2018-02-14T08:09:41.570Z,168.75
2018-02-14T08:10:41.525Z,168.75
2018-02-14T08:12:02.456Z,168.75
2018-02-14T08:12:41.409Z,174.38
2018-02-14T08:13:41.357Z,168.75
2018-02-14T08:14:41.307Z,174.38
2018-02-14T08:15:41.260Z,180.00
2018-02-14T08:16:41.216Z,180.00
2018-02-14T08:18:02.146Z,180.00
2018-02-14T08:18:41.114Z,180.00
2018-02-14T08:19:41.077Z,180.00
2018-02-14T08:20:41.008Z,185.63
2018-02-14T08:21:40.964Z,191.25
2018-02-14T08:22:40.940Z,191.25
2018-02-14T08:24:01.848Z,191.25
2018-02-14T08:24:40.805Z,196.88
2018-02-14T08:25:40.766Z,202.50
2018-02-14T08:26:40.705Z,208.13
2018-02-14T08:27:40.673Z,213.75
2018-02-14T08:28:40.636Z,213.75
2018-02-14T08:30:01.596Z,208.13
2018-02-14T08:30:40.548Z,213.75
2018-02-14T08:31:40.455Z,219.38
2018-02-14T08:32:40.407Z,213.75
2018-02-14T08:33:40.358Z,213.75
2018-02-14T08:34:40.308Z,219.38
2018-02-14T08:36:01.251Z,219.38
2018-02-14T08:36:40.266Z,219.38
2018-02-14T08:37:40.160Z,225.00
2018-02-14T08:38:40.123Z,225.00
2018-02-14T08:39:40.088Z,225.00
2018-02-14T08:40:40.019Z,225.00
2018-02-14T08:42:00.950Z,225.00
2018-02-14T08:42:39.928Z,230.63
2018-02-14T08:43:39.864Z,230.63
2018-02-14T08:44:39.814Z,230.63
2018-02-14T08:45:39.790Z,230.63
2018-02-14T08:46:39.738Z,225.00
2018-02-14T08:48:00.674Z,225.00
2018-02-14T08:48:39.642Z,225.00
2018-02-14T08:49:39.572Z,225.00
2018-02-14T08:50:39.539Z,225.00
2018-02-14T08:51:39.466Z,225.00
2018-02-14T08:52:39.413Z,225.00
2018-02-14T08:54:00.361Z,225.00
2018-02-14T08:54:39.319Z,225.00
2018-02-14T08:55:39.266Z,225.00
2018-02-14T08:56:39.238Z,230.63
2018-02-14T08:57:39.195Z,230.63
2018-02-14T08:58:39.142Z,236.25
2018-02-14T09:00:00.075Z,236.25
2018-02-14T09:00:39.020Z,236.25
2018-02-14T09:01:38.970Z,241.88
2018-02-14T09:02:38.921Z,241.88
2018-02-14T09:03:38.873Z,241.88
2018-02-14T09:04:38.821Z,241.88
2018-02-14T09:05:59.774Z,247.50
2018-02-14T09:06:38.723Z,247.50
2018-02-14T09:07:38.687Z,247.50
2018-02-14T09:08:38.624Z,253.13
2018-02-14T09:09:38.573Z,258.75
2018-02-14T09:10:38.549Z,258.75
2018-02-14T09:11:59.468Z,264.38
2018-02-14T09:12:38.429Z,264.38
2018-02-14T09:13:38.377Z,264.38
2018-02-14T09:14:38.332Z,270.00
2018-02-14T09:15:38.279Z,275.63
2018-02-14T09:16:38.230Z,275.63
2018-02-14T09:17:59.170Z,270.00
2018-02-14T09:18:38.147Z,281.25
2018-02-14T09:19:38.110Z,281.25
2018-02-14T09:20:38.052Z,281.25
2018-02-14T09:21:37.992Z,292.50
2018-02-14T09:22:37.952Z,298.13
2018-02-14T09:23:58.884Z,298.13
2018-02-14T09:24:37.838Z,298.13
2018-02-14T09:25:37.790Z,303.75
2018-02-14T09:26:37.738Z,298.13
2018-02-14T09:27:37.690Z,309.38
2018-02-14T09:28:37.642Z,309.38
2018-02-14T09:29:58.595Z,309.38
2018-02-14T09:30:37.570Z,309.38
2018-02-14T09:31:37.522Z,309.38
2018-02-14T09:32:37.449Z,315.00
2018-02-14T09:33:37.405Z,315.00
2018-02-14T09:34:37.371Z,326.25
2018-02-14T09:35:58.289Z,331.88
2018-02-14T09:36:37.248Z,343.13
2018-02-14T09:37:37.245Z,348.75
2018-02-14T09:38:37.164Z,365.63
2018-02-14T09:39:37.126Z,371.25
2018-02-14T09:40:37.059Z,393.75
2018-02-14T09:41:57.996Z,399.38
2018-02-14T09:42:36.969Z,393.75
2018-02-14T09:43:36.909Z,388.13
2018-02-14T09:44:36.874Z,388.13
2018-02-14T09:45:36.814Z,393.75
2018-02-14T09:46:36.756Z,399.38
2018-02-14T09:47:57.715Z,410.63
2018-02-14T09:48:36.679Z,427.50
2018-02-14T09:49:36.610Z,433.13
2018-02-14T09:50:36.581Z,433.13
2018-02-14T09:51:36.520Z,438.75
2018-02-14T09:52:36.462Z,450.00
2018-02-14T09:53:57.409Z,466.88
2018-02-14T09:54:36.368Z,500.63
2018-02-14T09:55:36.317Z,534.38
2018-02-14T09:56:36.283Z,568.13
2018-02-14T09:57:36.219Z,573.75
2018-02-14T09:58:36.167Z,579.38
2018-02-14T09:59:57.124Z,568.13
2018-02-14T10:00:36.067Z,568.13
2018-02-14T10:01:36.019Z,562.50
2018-02-14T10:02:35.977Z,556.88
2018-02-14T10:03:35.922Z,562.50
2018-02-14T10:04:35.878Z,551.25
2018-02-14T10:05:56.885Z,551.25
2018-02-14T10:06:35.789Z,551.25
2018-02-14T10:07:35.748Z,551.25
2018-02-14T10:08:35.677Z,534.38
2018-02-14T10:09:35.624Z,534.38
2018-02-14T10:10:35.590Z,534.38
2018-02-14T10:11:56.533Z,534.38
2018-02-14T10:12:35.507Z,511.88
2018-02-14T10:13:35.444Z,455.63
2018-02-14T10:14:35.381Z,444.38
2018-02-14T10:15:35.333Z,444.38
2018-02-14T10:16:35.283Z,421.88
2018-02-14T10:17:56.240Z,416.25
2018-02-14T10:18:35.221Z,410.63
2018-02-14T10:19:35.176Z,416.25
2018-02-14T10:20:35.083Z,393.75
2018-02-14T10:21:35.036Z,371.25
2018-02-14T10:22:35.027Z,360.00
2018-02-14T10:23:55.927Z,343.13
2018-02-14T10:24:34.892Z,326.25
2018-02-14T10:25:34.839Z,315.00
2018-02-14T10:26:34.819Z,303.75
2018-02-14T10:27:34.741Z,286.88
2018-02-14T10:28:34.743Z,264.38
2018-02-14T10:29:55.631Z,241.88
2018-02-14T10:30:34.585Z,230.63
2018-02-14T10:31:34.539Z,219.38
2018-02-14T10:32:34.483Z,219.38
2018-02-14T10:33:34.444Z,208.13
2018-02-14T10:34:34.383Z,202.50
2018-02-14T10:35:55.336Z,191.25
2018-02-14T10:36:34.353Z,191.25
2018-02-14T10:37:34.231Z,185.63
2018-02-14T10:38:34.175Z,180.00
2018-02-14T10:39:34.145Z,174.38
2018-02-14T10:40:34.082Z,174.38
2018-02-14T10:41:55.023Z,174.38
2018-02-14T10:42:33.991Z,174.38
2018-02-14T10:43:33.954Z,174.38
2018-02-14T10:44:33.866Z,174.38
2018-02-14T10:45:33.834Z,174.38
2018-02-14T10:46:33.806Z,174.38
2018-02-14T10:47:54.720Z,168.75
2018-02-14T10:48:33.659Z,163.13
2018-02-14T10:49:33.632Z,168.75
2018-02-14T10:50:33.584Z,163.13
2018-02-14T10:51:33.509Z,163.13
2018-02-14T10:52:33.449Z,157.50
2018-02-14T10:53:54.391Z,151.88
2018-02-14T10:54:33.352Z,151.88
2018-02-14T10:55:33.293Z,151.88
2018-02-14T10:56:33.257Z,151.88
2018-02-14T10:57:33.217Z,157.50
2018-02-14T10:58:33.160Z,157.50
2018-02-14T10:59:54.075Z,163.13
2018-02-14T11:00:33.033Z,157.50
2018-02-14T11:01:32.986Z,157.50
2018-02-14T11:02:32.941Z,157.50
2018-02-14T11:03:32.873Z,157.50
2018-02-14T11:04:32.816Z,163.13
2018-02-14T11:05:53.759Z,163.13
2018-02-14T11:06:32.713Z,174.38
2018-02-14T11:07:32.662Z,180.00
2018-02-14T11:08:32.619Z,180.00
2018-02-14T11:09:32.564Z,180.00
2018-02-14T11:10:32.503Z,180.00
2018-02-14T11:11:53.438Z,174.38
2018-02-14T11:12:32.394Z,168.75
2018-02-14T11:13:32.352Z,168.75
2018-02-14T11:14:32.286Z,157.50
2018-02-14T11:15:32.234Z,163.13
2018-02-14T11:16:32.191Z,163.13
2018-02-14T11:17:53.132Z,129.38
2018-02-14T11:18:32.074Z,163.13
2018-02-14T11:19:32.021Z,163.13
2018-02-14T11:20:31.978Z,163.13
2018-02-14T11:21:31.926Z,163.13
2018-02-14T11:22:31.886Z,157.50
2018-02-14T11:23:52.802Z,129.38
2018-02-14T11:24:31.759Z,151.88
2018-02-14T11:25:31.708Z,146.25
2018-02-14T11:26:31.652Z,146.25
2018-02-14T11:27:31.609Z,140.63
2018-02-14T11:28:31.549Z,129.38
2018-02-14T11:29:52.488Z,123.75
2018-02-14T11:30:31.444Z,123.75
2018-02-14T11:31:31.393Z,123.75
2018-02-14T11:32:31.345Z,118.13
2018-02-14T11:33:31.290Z,118.13
2018-02-14T11:34:31.244Z,112.50
2018-02-14T11:35:52.182Z,112.50
2018-02-14T11:36:31.136Z,112.50
2018-02-14T11:37:31.082Z,112.50
2018-02-14T11:38:31.033Z,118.13
2018-02-14T11:39:30.984Z,118.13
2018-02-14T11:40:30.958Z,112.50
2018-02-14T11:41:51.874Z,106.88
2018-02-14T11:42:30.832Z,112.50
2018-02-14T11:43:30.774Z,106.88
2018-02-14T11:44:30.721Z,106.88
2018-02-14T11:45:30.690Z,106.88
2018-02-14T11:46:30.621Z,106.88
2018-02-14T11:47:51.557Z,106.88
2018-02-14T11:48:30.520Z,106.88
2018-02-14T11:49:30.472Z,106.88
2018-02-14T11:50:30.413Z,101.25
2018-02-14T11:51:30.362Z,101.25
2018-02-14T11:52:30.356Z,101.25
2018-02-14T11:53:51.250Z,95.63
2018-02-14T11:54:30.208Z,95.63
2018-02-14T11:55:30.176Z,95.63
2018-02-14T11:56:30.107Z,95.63
2018-02-14T11:57:30.053Z,95.63
2018-02-14T11:58:30.035Z,95.63
2018-02-14T11:59:50.952Z,95.63
2018-02-14T12:00:29.899Z,95.63
2018-02-14T12:01:29.846Z,95.63
2018-02-14T12:02:29.815Z,95.63
2018-02-14T12:03:29.741Z,95.63
2018-02-14T12:04:29.689Z,95.63
2018-02-14T12:05:50.651Z,95.63
2018-02-14T12:06:29.589Z,95.63
2018-02-14T12:07:29.534Z,95.63
2018-02-14T12:08:29.481Z,95.63
2018-02-14T12:09:29.440Z,95.63
2018-02-14T12:10:29.381Z,95.63
2018-02-14T12:11:50.317Z,95.63
2018-02-14T12:12:29.293Z,90.00
2018-02-14T12:13:29.221Z,90.00
2018-02-14T12:14:29.180Z,90.00
2018-02-14T12:15:29.118Z,90.00
2018-02-14T12:16:29.080Z,90.00
2018-02-14T12:17:50.007Z,90.00
2018-02-14T12:18:28.961Z,90.00
2018-02-14T12:19:28.947Z,90.00
2018-02-14T12:20:28.915Z,90.00
2018-02-14T12:21:28.805Z,90.00
2018-02-14T12:22:28.752Z,90.00
2018-02-14T12:23:49.702Z,90.00
2018-02-14T12:24:28.663Z,90.00
2018-02-14T12:25:28.594Z,90.00
2018-02-14T12:26:28.542Z,90.00
2018-02-14T12:27:28.489Z,90.00
2018-02-14T12:28:28.438Z,90.00
2018-02-14T12:29:49.376Z,95.63
2018-02-14T12:30:28.380Z,95.63
2018-02-14T12:31:28.288Z,95.63
2018-02-14T12:32:28.224Z,90.00
2018-02-14T12:33:28.176Z,90.00
2018-02-14T12:34:28.116Z,90.00
2018-02-14T12:35:49.071Z,90.00
2018-02-14T12:36:28.015Z,90.00
2018-02-14T12:37:27.961Z,84.38
2018-02-14T12:38:27.916Z,84.38
2018-02-14T12:39:27.869Z,84.38
2018-02-14T12:40:27.802Z,84.38
2018-02-14T12:41:48.738Z,84.38
2018-02-14T12:42:27.704Z,84.38
2018-02-14T12:43:27.651Z,84.38
2018-02-14T12:44:27.586Z,84.38
2018-02-14T12:45:27.533Z,84.38
2018-02-14T12:46:27.481Z,78.75
2018-02-14T12:47:48.427Z,84.38
2018-02-14T12:48:27.377Z,84.38
2018-02-14T12:49:27.318Z,90.00
2018-02-14T12:50:27.278Z,90.00
2018-02-14T12:51:27.230Z,90.00
2018-02-14T12:52:27.171Z,90.00
2018-02-14T12:53:48.139Z,84.38
2018-02-14T12:54:27.049Z,90.00
2018-02-14T12:55:27.012Z,90.00
2018-02-14T12:56:26.958Z,90.00